Time;durP1;ratioP1;P1;durP2;ratioP2;P2;SDS_P1;SDS_P2;PMS_P1;PMS_P2;Temp;Humidity;BMP_temperature;BMP_pressure;BME280_temperature;BME280_humidity;BME280_pressure;Samples;Min_cycle;Max_cycle;Signal;HPM_P1;HPM_P2
2022/12/28 00:01:07;;;;;;;7.80;3.15;;;4.80;99.90;;;;;;5108809;28;20492;-81
2022/12/28 00:03:34;;;;;;;7.97;3.72;;;4.80;99.90;;;;;;5109064;28;20036;-81
2022/12/28 00:06:02;;;;;;;10.40;3.45;;;5.10;99.90;;;;;;5093251;28;20120;-81
2022/12/28 00:08:28;;;;;;;13.05;3.70;;;4.80;99.90;;;;;;5088949;28;20049;-81
2022/12/28 00:11:00;;;;;;;11.68;3.33;;;4.80;99.90;;;;;;5072207;28;20097;-81
2022/12/28 00:13:29;;;;;;;8.60;3.60;;;4.80;99.90;;;;;;5072444;28;20573;-81
2022/12/28 00:15:57;;;;;;;11.15;3.78;;;4.80;99.90;;;;;;5105854;28;20512;-81
2022/12/28 00:18:24;;;;;;;12.25;3.65;;;4.80;99.90;;;;;;5073601;28;20415;-81
2022/12/28 00:20:57;;;;;;;11.48;4.38;;;4.80;99.90;;;;;;5088581;28;20135;-81
2022/12/28 00:23:24;;;;;;;10.80;3.47;;;4.80;99.90;;;;;;5089005;28;20045;-81
2022/12/28 00:25:51;;;;;;;8.88;3.55;;;4.80;99.90;;;;;;5109169;28;20044;-81
2022/12/28 00:28:19;;;;;;;12.80;3.50;;;4.80;99.90;;;;;;5091747;28;20384;-81
2022/12/28 00:30:46;;;;;;;9.15;3.67;;;4.80;99.90;;;;;;5109283;28;20067;-80
2022/12/28 00:33:13;;;;;;;10.73;3.78;;;4.80;99.90;;;;;;5109205;28;20039;-81
2022/12/28 00:35:40;;;;;;;7.88;3.78;;;4.80;99.90;;;;;;5092514;28;20036;-81
2022/12/28 00:38:06;;;;;;;10.07;3.75;;;4.80;99.90;;;;;;5125175;28;20047;-81
2022/12/28 00:40:33;;;;;;;8.20;3.40;;;4.80;99.90;;;;;;5082455;28;20033;-81
2022/12/28 00:43:00;;;;;;;10.98;3.63;;;4.90;99.90;;;;;;5088854;28;20457;-81
2022/12/28 00:45:26;;;;;;;11.40;4.13;;;4.80;99.90;;;;;;5071929;28;20546;-80
2022/12/28 00:47:53;;;;;;;8.25;3.42;;;4.80;99.90;;;;;;5073345;28;20044;-80
2022/12/28 00:50:20;;;;;;;8.35;3.50;;;4.70;99.90;;;;;;5091767;28;20035;-80
2022/12/28 00:52:46;;;;;;;11.80;3.78;;;4.90;99.90;;;;;;5108904;28;20097;-81
2022/12/28 00:55:13;;;;;;;10.35;3.58;;;4.80;99.90;;;;;;5125737;28;20068;-81
2022/12/28 00:57:40;;;;;;;9.77;4.43;;;4.80;99.90;;;;;;5075131;28;20040;-81
2022/12/28 01:00:07;;;;;;;10.35;3.92;;;4.70;99.90;;;;;;5058813;28;20505;-80
2022/12/28 01:02:33;;;;;;;11.07;3.85;;;4.70;99.90;;;;;;5088260;28;20043;-81
2022/12/28 01:05:00;;;;;;;14.88;4.28;;;4.70;99.90;;;;;;5071734;28;20040;-81
2022/12/28 01:07:27;;;;;;;10.80;3.88;;;4.80;99.90;;;;;;5071368;28;20040;-80
2022/12/28 01:09:53;;;;;;;11.27;3.85;;;4.80;99.90;;;;;;5088588;28;20127;-81
2022/12/28 01:12:20;;;;;;;11.85;3.90;;;4.80;99.90;;;;;;5073057;28;20044;-81
2022/12/28 01:14:47;;;;;;;12.07;3.95;;;4.70;99.90;;;;;;5075302;28;20040;-82
2022/12/28 01:17:13;;;;;;;10.43;3.85;;;4.70;99.90;;;;;;5075588;28;20040;-81
2022/12/28 01:19:40;;;;;;;9.80;3.90;;;4.80;99.90;;;;;;5075059;28;20115;-81
2022/12/28 01:22:09;;;;;;;13.68;4.40;;;4.80;99.90;;;;;;5075268;28;20048;-81
2022/12/28 01:24:35;;;;;;;9.90;3.90;;;4.90;99.90;;;;;;5108331;28;20102;-81
2022/12/28 01:27:02;;;;;;;10.68;3.90;;;4.70;99.90;;;;;;5075072;28;20446;-81
2022/12/28 01:29:29;;;;;;;11.85;4.32;;;4.80;99.90;;;;;;5108381;28;20496;-81
2022/12/28 01:31:55;;;;;;;8.25;3.40;;;4.80;99.90;;;;;;5074876;28;20037;-80
2022/12/28 01:34:22;;;;;;;10.73;3.47;;;4.80;99.90;;;;;;5097727;28;20055;-80
2022/12/28 01:36:49;;;;;;;9.55;3.28;;;4.90;99.90;;;;;;5078497;28;20392;-81
2022/12/28 01:39:15;;;;;;;7.18;3.20;;;4.90;99.90;;;;;;5078760;28;20942;-81
2022/12/28 01:41:42;;;;;;;7.45;3.50;;;4.90;99.90;;;;;;5094674;28;20044;-80
2022/12/28 01:44:12;;;;;;;9.93;3.45;;;5.40;99.90;;;;;;5092702;28;20048;-81
2022/12/28 01:46:43;;;;;;;12.18;3.80;;;5.00;99.90;;;;;;5091045;28;20048;-81
2022/12/28 01:49:25;;;;;;;13.00;3.70;;;5.00;99.90;;;;;;5091221;28;20045;-81
2022/12/28 01:52:04;;;;;;;10.27;3.72;;;5.00;99.90;;;;;;5108181;28;20032;-81
2022/12/28 01:54:37;;;;;;;7.53;3.80;;;5.00;99.90;;;;;;5107911;28;20078;-81
2022/12/28 01:57:03;;;;;;;11.68;3.80;;;5.20;99.90;;;;;;5091176;28;20088;-81
2022/12/28 01:59:35;;;;;;;9.80;3.53;;;5.00;99.90;;;;;;5107408;28;20457;-81
2022/12/28 02:02:01;;;;;;;10.77;4.68;;;5.00;99.90;;;;;;5091003;28;20036;-81
2022/12/28 02:04:28;;;;;;;7.30;3.83;;;5.00;99.90;;;;;;5074007;28;20041;-81
2022/12/28 02:06:55;;;;;;;7.82;3.85;;;5.00;99.90;;;;;;5092083;28;20123;-81
2022/12/28 02:09:37;;;;;;;11.88;4.15;;;5.00;99.90;;;;;;5090791;28;20052;-81
2022/12/28 02:12:07;;;;;;;8.20;4.00;;;5.00;99.90;;;;;;5107455;28;20046;-81
2022/12/28 02:14:34;;;;;;;10.10;4.30;;;5.10;99.90;;;;;;5090763;28;20111;-81
2022/12/28 02:17:01;;;;;;;9.95;4.18;;;5.10;99.90;;;;;;5074629;28;20101;-80
2022/12/28 02:19:45;;;;;;;11.85;4.03;;;5.10;99.90;;;;;;5090468;28;20126;-81
2022/12/28 02:22:24;;;;;;;11.65;4.28;;;5.00;99.90;;;;;;5108386;28;20040;-81
2022/12/28 02:25:14;;;;;;;10.65;4.63;;;5.10;99.90;;;;;;5090033;28;20052;-81
2022/12/28 02:28:14;;;;;;;11.88;4.22;;;5.10;99.90;;;;;;5090588;28;20113;-81
2022/12/28 02:31:00;;;;;;;10.23;3.88;;;5.10;99.90;;;;;;5090377;28;20041;-81
2022/12/28 02:33:44;;;;;;;11.90;4.38;;;5.10;99.90;;;;;;5090715;28;20048;-81
2022/12/28 02:36:29;;;;;;;14.55;4.47;;;5.10;99.90;;;;;;5090629;28;20036;-81
2022/12/28 02:39:14;;;;;;;9.63;4.07;;;5.10;99.90;;;;;;5090750;28;20039;-81
2022/12/28 02:41:42;;;;;;;8.88;4.60;;;5.90;99.90;;;;;;5090102;28;20075;-81
2022/12/28 02:44:09;;;;;;;12.60;5.05;;;5.10;99.90;;;;;;5090500;28;20127;-81
2022/12/28 02:52:58;;;;;;;10.07;4.28;;;5.20;99.90;;;;;;5106781;28;20659;-81
2022/12/28 02:58:55;;;;;;;8.88;4.38;;;5.10;99.90;;;;;;5106642;28;20520;-81
2022/12/28 03:01:47;;;;;;;10.57;4.55;;;5.20;99.90;;;;;;5106522;28;20450;-80
2022/12/28 03:04:46;;;;;;;9.35;4.45;;;5.20;99.90;;;;;;5116577;28;20061;-81
2022/12/28 03:10:26;;;;;;;9.20;4.70;;;5.20;99.90;;;;;;5147314;28;20130;-80
2022/12/28 03:13:04;;;;;;;11.68;4.70;;;5.20;99.90;;;;;;5147356;28;20047;-81
2022/12/28 03:15:36;;;;;;;9.75;4.32;;;5.20;99.90;;;;;;5089737;28;20032;-81
2022/12/28 03:32:13;;;;;;;11.30;4.47;;;5.30;99.90;;;;;;5105810;28;20135;-80
2022/12/28 03:34:40;;;;;;;9.80;4.50;;;5.30;99.90;;;;;;5093681;28;20488;-80
2022/12/28 03:37:24;;;;;;;12.75;4.90;;;5.20;99.90;;;;;;5108582;28;20042;-80
2022/12/28 03:39:59;;;;;;;8.77;4.28;;;5.30;99.90;;;;;;5109300;28;20414;-80
2022/12/28 03:45:25;;;;;;;8.82;4.60;;;5.30;99.90;;;;;;5125862;28;20437;-80
2022/12/28 03:47:54;;;;;;;9.18;4.55;;;5.30;99.90;;;;;;5109476;28;20139;-81
2022/12/28 03:50:22;;;;;;;16.90;5.18;;;5.30;99.90;;;;;;5109421;28;20484;-80
2022/12/28 03:52:50;;;;;;;8.93;4.55;;;5.30;99.90;;;;;;5109087;28;20044;-81
2022/12/28 03:55:17;;;;;;;12.35;4.88;;;5.40;99.90;;;;;;5105222;28;20036;-80
2022/12/28 03:57:46;;;;;;;9.98;4.60;;;5.40;99.90;;;;;;5088980;28;20098;-81
2022/12/28 04:00:13;;;;;;;13.18;4.90;;;5.40;99.90;;;;;;5072522;28;20562;-81
2022/12/28 04:02:39;;;;;;;11.45;4.40;;;5.40;99.90;;;;;;5072322;28;20040;-81
2022/12/28 04:05:06;;;;;;;9.70;5.20;;;5.40;99.90;;;;;;5072030;28;20071;-81
2022/12/28 04:07:33;;;;;;;9.45;4.68;;;5.40;99.90;;;;;;5125356;28;20040;-80
2022/12/28 04:10:00;;;;;;;7.95;4.40;;;5.50;99.90;;;;;;5092233;28;20036;-80
2022/12/28 04:12:26;;;;;;;8.65;4.80;;;5.50;99.90;;;;;;5109023;28;20567;-81
2022/12/28 04:14:53;;;;;;;7.88;4.53;;;5.60;99.90;;;;;;5108977;28;20131;-80
2022/12/28 04:17:20;;;;;;;12.77;4.50;;;5.50;99.90;;;;;;5076761;28;20548;-80
2022/12/28 04:19:46;;;;;;;10.27;4.10;;;5.50;99.90;;;;;;5086944;28;20047;-81
2022/12/28 04:22:13;;;;;;;9.23;4.43;;;5.50;99.90;;;;;;5088841;28;20040;-81
2022/12/28 04:24:40;;;;;;;11.70;4.45;;;5.60;99.90;;;;;;5109191;28;20048;-80
2022/12/28 04:27:06;;;;;;;7.25;4.05;;;5.60;99.90;;;;;;5108871;28;20042;-81
2022/12/28 04:29:33;;;;;;;11.90;4.40;;;5.60;99.90;;;;;;5092422;28;20040;-81
2022/12/28 04:32:00;;;;;;;10.43;4.28;;;5.70;99.90;;;;;;5099134;28;20135;-81
2022/12/28 04:34:27;;;;;;;8.18;3.95;;;5.70;99.90;;;;;;5088892;28;20044;-81
2022/12/28 04:36:53;;;;;;;7.65;3.92;;;5.70;99.90;;;;;;5071972;28;20126;-81
2022/12/28 04:39:20;;;;;;;10.23;3.88;;;5.70;99.90;;;;;;5072600;28;20401;-80
2022/12/28 04:41:47;;;;;;;9.00;4.15;;;5.80;99.90;;;;;;5088491;28;20114;-80
2022/12/28 04:44:13;;;;;;;8.18;3.72;;;5.80;99.90;;;;;;5072454;28;20140;-81
2022/12/28 04:46:40;;;;;;;10.15;3.97;;;5.80;99.90;;;;;;5072518;28;20102;-81
2022/12/28 04:49:07;;;;;;;11.05;4.28;;;5.80;99.90;;;;;;5075055;28;20058;-81
2022/12/28 04:51:34;;;;;;;7.18;3.90;;;5.80;99.90;;;;;;5075943;28;20032;-80
2022/12/28 04:54:00;;;;;;;8.52;4.32;;;5.90;99.90;;;;;;5075708;28;20064;-80
2022/12/28 04:56:27;;;;;;;5.85;3.75;;;6.10;99.90;;;;;;5075696;28;20052;-81
2022/12/28 04:58:56;;;;;;;6.47;3.65;;;5.90;99.90;;;;;;5092438;28;20052;-80
2022/12/28 05:01:23;;;;;;;7.90;3.50;;;5.90;99.90;;;;;;5092464;28;20052;-80
2022/12/28 05:03:52;;;;;;;6.10;3.30;;;5.90;99.90;;;;;;5075173;28;20106;-80
2022/12/28 05:06:21;;;;;;;5.45;3.65;;;6.00;99.90;;;;;;5092364;28;20044;-81
2022/12/28 05:08:48;;;;;;;6.45;3.20;;;6.00;99.90;;;;;;5092296;28;20047;-80
2022/12/28 05:11:17;;;;;;;5.53;3.17;;;6.00;99.90;;;;;;5091604;28;20123;-81
2022/12/28 05:13:47;;;;;;;7.80;3.60;;;6.10;99.90;;;;;;5092907;28;20523;-80
2022/12/28 05:16:18;;;;;;;6.10;3.28;;;6.00;99.90;;;;;;5092520;28;20048;-81
2022/12/28 05:18:45;;;;;;;6.53;3.20;;;6.00;99.90;;;;;;5091778;28;20044;-81
2022/12/28 05:21:14;;;;;;;5.88;3.20;;;6.10;99.90;;;;;;5075261;28;20044;-81
2022/12/28 05:23:42;;;;;;;5.20;3.03;;;6.10;99.90;;;;;;5116246;28;20117;-81
2022/12/28 05:26:12;;;;;;;6.03;3.38;;;6.10;99.90;;;;;;5094906;28;20084;-80
2022/12/28 05:28:39;;;;;;;6.47;3.58;;;6.10;99.90;;;;;;5111978;28;20040;-81
2022/12/28 05:31:10;;;;;;;5.63;3.40;;;6.10;99.90;;;;;;5111760;28;20812;-80
2022/12/28 05:33:38;;;;;;;6.72;3.25;;;6.10;99.90;;;;;;5111860;28;20055;-80
2022/12/28 05:36:06;;;;;;;7.10;3.45;;;6.10;99.90;;;;;;5101231;28;20055;-81
2022/12/28 05:38:33;;;;;;;5.95;3.47;;;6.20;99.90;;;;;;5075673;28;20037;-81
2022/12/28 05:41:10;;;;;;;7.60;3.45;;;6.20;99.90;;;;;;5074995;28;20041;-81
2022/12/28 05:43:36;;;;;;;8.48;3.55;;;6.20;99.90;;;;;;5091626;28;20553;-81
2022/12/28 05:46:08;;;;;;;8.82;3.55;;;6.20;99.90;;;;;;5091100;28;20127;-80
2022/12/28 05:48:36;;;;;;;5.30;3.25;;;6.30;99.90;;;;;;5117431;28;20037;-80
2022/12/28 05:51:06;;;;;;;6.88;3.58;;;6.20;99.90;;;;;;5110963;28;20043;-80
2022/12/28 05:53:33;;;;;;;6.85;3.40;;;6.20;99.90;;;;;;5120430;28;20037;-80
2022/12/28 05:56:04;;;;;;;5.45;3.55;;;6.20;99.90;;;;;;5074074;28;20480;-80
2022/12/28 05:58:32;;;;;;;7.38;3.78;;;6.30;99.90;;;;;;5097249;28;20046;-79
2022/12/28 06:01:13;;;;;;;6.95;3.88;;;6.30;99.90;;;;;;5127209;28;20208;-80
2022/12/28 06:03:40;;;;;;;5.72;3.65;;;6.30;99.90;;;;;;5111183;28;20114;-80
2022/12/28 06:06:13;;;;;;;8.27;4.40;;;6.30;99.90;;;;;;5127619;28;20427;-80
2022/12/28 06:08:40;;;;;;;7.45;4.13;;;6.40;99.90;;;;;;5110692;28;20044;-80
2022/12/28 06:11:11;;;;;;;5.68;3.88;;;6.40;99.90;;;;;;5090525;28;20040;-80
2022/12/28 06:13:37;;;;;;;6.05;3.85;;;6.40;99.90;;;;;;5107688;28;20047;-81
2022/12/28 06:16:11;;;;;;;7.10;3.90;;;6.50;99.90;;;;;;5090659;28;20033;-80
2022/12/28 06:18:38;;;;;;;6.05;3.72;;;6.40;99.90;;;;;;5107878;28;20102;-81
2022/12/28 06:21:17;;;;;;;7.07;3.90;;;6.50;99.90;;;;;;5107202;28;20040;-81
2022/12/28 06:23:45;;;;;;;6.32;4.25;;;6.50;99.90;;;;;;5091215;28;20048;-81
2022/12/28 06:26:14;;;;;;;7.75;4.20;;;6.50;99.90;;;;;;5107206;28;20040;-81
2022/12/28 06:28:42;;;;;;;7.38;4.13;;;6.60;99.90;;;;;;5090526;28;20489;-81
2022/12/28 06:31:15;;;;;;;6.72;4.22;;;6.60;99.90;;;;;;5107618;28;20514;-80
2022/12/28 06:33:42;;;;;;;6.95;4.80;;;6.60;99.90;;;;;;5127866;28;20043;-80
2022/12/28 06:36:19;;;;;;;10.07;4.43;;;6.60;99.90;;;;;;5093942;28;20411;-81
2022/12/28 06:38:46;;;;;;;9.05;4.80;;;6.60;99.90;;;;;;5110703;28;20059;-80
2022/12/28 06:41:14;;;;;;;7.47;4.97;;;6.70;99.90;;;;;;5126740;28;20036;-81
2022/12/28 06:43:42;;;;;;;7.57;4.80;;;6.70;99.90;;;;;;5127682;28;20039;-80
2022/12/28 06:46:09;;;;;;;7.80;5.00;;;6.80;99.90;;;;;;5110289;28;20036;-80
2022/12/28 06:48:36;;;;;;;8.45;5.25;;;6.70;99.90;;;;;;5110887;28;20084;-81
2022/12/28 06:51:13;;;;;;;10.60;5.70;;;6.80;99.90;;;;;;5127427;28;20036;-80
2022/12/28 06:53:40;;;;;;;8.77;5.00;;;6.80;99.90;;;;;;5110329;28;20048;-80
2022/12/28 06:56:12;;;;;;;8.45;4.82;;;6.80;99.90;;;;;;5089955;28;20036;-80
2022/12/28 06:58:39;;;;;;;8.57;4.97;;;6.80;99.90;;;;;;5090126;28;20052;-81
2022/12/28 07:01:06;;;;;;;9.00;5.22;;;6.90;99.90;;;;;;5089749;28;20078;-80
2022/12/28 07:03:33;;;;;;;7.35;4.85;;;6.90;99.90;;;;;;5090093;28;20074;-81
2022/12/28 07:06:01;;;;;;;8.30;4.75;;;6.90;99.90;;;;;;5093468;28;20119;-80
2022/12/28 07:08:28;;;;;;;9.13;5.47;;;6.90;99.90;;;;;;5109786;28;20054;-81
2022/12/28 07:10:54;;;;;;;8.27;5.05;;;7.00;99.90;;;;;;5126887;28;20094;-81
2022/12/28 07:13:21;;;;;;;10.40;4.95;;;7.00;99.90;;;;;;5126667;28;20075;-80
2022/12/28 07:15:48;;;;;;;7.45;4.75;;;7.00;99.90;;;;;;5110057;28;20039;-80
2022/12/28 07:18:14;;;;;;;9.88;6.18;;;7.10;99.90;;;;;;5092681;28;20040;-81
2022/12/28 07:20:41;;;;;;;9.43;5.65;;;7.10;99.90;;;;;;5076558;28;20043;-80
2022/12/28 07:23:08;;;;;;;9.25;5.30;;;7.10;99.90;;;;;;5093081;28;20048;-80
2022/12/28 07:25:35;;;;;;;8.48;4.70;;;7.20;99.90;;;;;;5092983;28;20040;-80
2022/12/28 07:28:01;;;;;;;7.93;5.03;;;7.20;99.90;;;;;;5128979;28;20040;-81
2022/12/28 07:30:28;;;;;;;8.38;4.65;;;7.30;99.90;;;;;;5083734;28;20039;-80
2022/12/28 07:32:55;;;;;;;8.88;4.57;;;7.30;99.90;;;;;;5099568;28;20035;-81
2022/12/28 07:35:21;;;;;;;8.82;4.78;;;7.30;99.90;;;;;;5090958;28;20109;-80
2022/12/28 07:37:49;;;;;;;7.55;4.50;;;7.40;99.90;;;;;;5094524;28;20044;-81
2022/12/28 07:40:16;;;;;;;6.78;4.90;;;7.40;99.90;;;;;;5092906;28;20114;-80
2022/12/28 07:42:42;;;;;;;10.27;5.05;;;7.40;99.90;;;;;;5092894;28;20040;-82
2022/12/28 07:45:11;;;;;;;7.80;4.80;;;7.40;99.90;;;;;;5109775;28;20485;-81
2022/12/28 07:47:38;;;;;;;8.60;4.85;;;7.40;99.90;;;;;;5093123;28;20092;-81
2022/12/28 07:50:05;;;;;;;9.45;4.53;;;7.40;99.90;;;;;;5112185;28;20035;-82
2022/12/28 07:52:32;;;;;;;9.05;4.93;;;7.50;99.90;;;;;;5086903;28;20103;-81
2022/12/28 07:54:58;;;;;;;9.65;5.03;;;7.50;99.90;;;;;;5097425;28;20032;-81
2022/12/28 07:57:25;;;;;;;9.43;5.18;;;7.50;99.90;;;;;;5092173;28;20122;-81
2022/12/28 07:59:52;;;;;;;10.82;5.88;;;7.50;99.90;;;;;;5108542;28;20052;-81
2022/12/28 08:02:18;;;;;;;9.85;5.97;;;7.60;99.90;;;;;;5111422;28;20040;-81
2022/12/28 08:04:45;;;;;;;11.85;6.43;;;7.60;99.90;;;;;;5089837;28;20043;-81
2022/12/28 08:07:12;;;;;;;9.07;6.00;;;7.60;99.90;;;;;;5112994;28;20110;-81
2022/12/28 08:09:38;;;;;;;10.05;6.32;;;7.60;99.90;;;;;;5090222;28;20109;-81
2022/12/28 08:12:05;;;;;;;17.48;6.55;;;7.70;99.90;;;;;;5075454;28;20101;-81
2022/12/28 08:14:32;;;;;;;11.65;6.47;;;7.70;99.90;;;;;;5122927;28;20038;-82
2022/12/28 08:16:59;;;;;;;12.20;6.55;;;7.80;99.90;;;;;;5095363;28;20059;-79
2022/12/28 08:19:25;;;;;;;12.45;6.20;;;7.90;99.90;;;;;;5078646;28;20124;-80
2022/12/28 08:21:52;;;;;;;12.48;6.50;;;7.80;99.90;;;;;;5095423;28;20045;-80
2022/12/28 08:24:19;;;;;;;9.25;5.80;;;7.90;99.90;;;;;;5120988;28;20042;-79
2022/12/28 08:26:47;;;;;;;10.80;6.25;;;7.90;99.90;;;;;;5132982;28;20076;-80
2022/12/28 08:29:20;;;;;;;9.93;6.25;;;7.90;99.90;;;;;;5104481;28;20032;-80
2022/12/28 08:31:48;;;;;;;10.25;5.55;;;7.90;99.90;;;;;;5117267;28;20557;-81
2022/12/28 08:34:18;;;;;;;9.35;5.47;;;7.90;99.90;;;;;;5113975;28;20048;-81
2022/12/28 08:36:45;;;;;;;7.97;5.07;;;8.00;99.90;;;;;;5121497;28;20441;-81
2022/12/28 08:39:13;;;;;;;8.45;5.22;;;8.00;99.90;;;;;;5133381;28;20028;-81
2022/12/28 08:41:40;;;;;;;8.38;5.65;;;8.00;99.90;;;;;;5095390;28;20169;-80
2022/12/28 08:44:06;;;;;;;9.73;5.43;;;8.00;99.90;;;;;;5116162;28;20040;-80
2022/12/28 08:46:34;;;;;;;9.40;5.32;;;8.00;99.90;;;;;;5117560;28;20032;-80
2022/12/28 08:49:02;;;;;;;8.63;5.68;;;8.00;99.90;;;;;;5085579;28;20044;-80
2022/12/28 08:51:32;;;;;;;10.00;6.13;;;8.00;99.90;;;;;;5116201;28;20036;-80
2022/12/28 08:54:00;;;;;;;10.23;6.85;;;8.00;99.90;;;;;;5113764;28;20044;-80
2022/12/28 08:56:30;;;;;;;9.82;6.15;;;8.00;99.90;;;;;;5115567;28;20129;-80
2022/12/28 08:58:58;;;;;;;10.25;5.63;;;8.10;99.90;;;;;;5132233;28;20052;-80
2022/12/28 09:01:28;;;;;;;15.38;6.32;;;8.00;99.90;;;;;;5090500;28;20043;-79
2022/12/28 09:03:58;;;;;;;10.93;5.95;;;8.10;99.90;;;;;;5120495;28;20032;-79
2022/12/28 09:06:34;;;;;;;7.90;4.95;;;8.10;99.90;;;;;;5114642;28;20042;-80
2022/12/28 09:09:02;;;;;;;10.98;6.38;;;8.10;99.90;;;;;;5117152;28;20416;-80
2022/12/28 09:11:29;;;;;;;14.25;8.70;;;8.10;99.90;;;;;;5097279;28;20036;-80
2022/12/28 09:13:56;;;;;;;9.90;6.20;;;8.10;99.90;;;;;;5112056;28;20381;-80
2022/12/28 09:16:26;;;;;;;16.60;5.45;;;8.10;99.90;;;;;;5082952;28;20023;-80
2022/12/28 09:18:55;;;;;;;12.98;7.85;;;8.10;99.90;;;;;;5139137;28;20040;-80
2022/12/28 09:21:23;;;;;;;10.30;5.93;;;8.10;99.90;;;;;;5115267;28;20062;-80
2022/12/28 09:23:50;;;;;;;8.57;5.30;;;8.10;99.90;;;;;;5142050;28;20518;-80
2022/12/28 09:26:19;;;;;;;8.48;5.35;;;8.10;99.90;;;;;;5107353;28;20044;-81
2022/12/28 09:28:47;;;;;;;10.43;4.53;;;8.10;99.90;;;;;;5137994;28;20044;-82
2022/12/28 09:31:15;;;;;;;8.93;4.78;;;8.00;99.90;;;;;;5112474;28;20044;-81
2022/12/28 09:34:00;;;;;;;6.55;4.25;;;8.10;99.90;;;;;;5097551;28;20067;-81
2022/12/28 09:36:37;;;;;;;8.60;4.85;;;8.10;99.90;;;;;;5120432;28;20476;-81
2022/12/28 09:39:06;;;;;;;9.15;5.10;;;8.10;99.90;;;;;;5111720;28;20400;-81
2022/12/28 09:41:42;;;;;;;8.63;4.70;;;8.10;99.90;;;;;;5127887;28;20066;-81
2022/12/28 09:44:11;;;;;;;;;;;8.10;99.90;;;;;;5119454;28;20075;-82
2022/12/28 09:46:47;;;;;;;13.50;7.80;;;8.00;99.90;;;;;;5117100;28;20007;-81
2022/12/28 09:49:15;;;;;;;;;;;8.10;99.90;;;;;;5139667;28;20036;-81
2022/12/28 09:52:10;;;;;;;6.35;4.20;;;8.00;99.90;;;;;;5095085;28;19920;-81
2022/12/28 09:54:38;;;;;;;7.75;4.40;;;8.00;99.90;;;;;;5107542;28;20137;-81
2022/12/28 09:57:13;;;;;;;6.20;4.07;;;8.00;99.90;;;;;;5074509;28;20055;-81
2022/12/28 09:59:41;;;;;;;6.68;4.13;;;8.00;99.90;;;;;;5090884;28;20040;-81
2022/12/28 10:02:26;;;;;;;6.32;4.00;;;8.10;99.90;;;;;;5077491;28;20479;-81
2022/12/28 10:04:52;;;;;;;7.03;4.60;;;8.10;99.90;;;;;;5127788;28;20087;-81
2022/12/28 10:07:19;;;;;;;7.80;5.03;;;8.10;99.90;;;;;;5094550;28;20513;-81
2022/12/28 10:09:47;;;;;;;7.38;4.40;;;8.10;99.90;;;;;;5110416;28;20036;-82
2022/12/28 10:12:23;;;;;;;8.35;4.50;;;8.10;99.90;;;;;;5111710;28;20040;-82
2022/12/28 10:14:52;;;;;;;7.05;4.22;;;8.10;99.90;;;;;;5094833;28;20040;-81
2022/12/28 10:17:25;;;;;;;6.95;4.30;;;8.10;99.90;;;;;;5090393;28;20037;-81
2022/12/28 10:19:55;;;;;;;8.63;4.97;;;8.10;99.90;;;;;;5090538;28;20071;-81
2022/12/28 10:22:25;;;;;;;7.78;4.30;;;8.20;99.90;;;;;;5090791;28;20040;-81
2022/12/28 10:24:53;;;;;;;6.30;3.90;;;8.20;99.90;;;;;;5090575;28;20178;-81
2022/12/28 10:27:28;;;;;;;7.45;4.25;;;8.20;99.90;;;;;;5090727;28;20552;-81
2022/12/28 10:29:55;;;;;;;8.88;4.90;;;8.20;99.90;;;;;;5106729;28;20044;-81
2022/12/28 10:32:22;;;;;;;6.13;3.80;;;8.20;99.90;;;;;;5073657;28;20087;-82
2022/12/28 10:35:20;;;;;;;8.93;4.57;;;8.20;99.90;;;;;;5081262;28;20068;-81
2022/12/28 10:37:46;;;;;;;7.70;4.80;;;8.20;99.90;;;;;;5108902;28;20855;-80
2022/12/28 10:40:29;;;;;;;7.03;4.20;;;8.20;99.90;;;;;;5090244;28;20062;-80
2022/12/28 10:42:57;;;;;;;8.52;4.03;;;8.20;99.90;;;;;;5135971;28;20067;-80
2022/12/28 10:45:39;;;;;;;10.18;4.93;;;8.30;99.90;;;;;;5101032;28;20042;-80
2022/12/28 10:48:17;;;;;;;8.65;5.05;;;8.30;99.90;;;;;;5138889;28;20115;-80
2022/12/28 10:50:51;;;;;;;9.50;4.18;;;8.30;99.90;;;;;;5108027;28;20036;-80
2022/12/28 10:53:24;;;;;;;9.98;4.40;;;8.30;99.90;;;;;;5089675;28;20032;-81
2022/12/28 10:56:10;;;;;;;10.05;5.28;;;8.30;99.90;;;;;;5089318;28;20041;-81
2022/12/28 10:58:40;;;;;;;7.78;4.55;;;8.30;99.90;;;;;;5130138;28;20044;-81
2022/12/28 11:01:13;;;;;;;9.52;5.97;;;8.40;99.90;;;;;;5115108;28;20048;-80
2022/12/28 11:03:42;;;;;;;9.90;5.55;;;8.40;99.90;;;;;;5108163;28;20129;-81
2022/12/28 11:06:18;;;;;;;11.10;6.50;;;8.40;99.90;;;;;;5110030;28;20507;-81
2022/12/28 11:09:01;;;;;;;8.65;5.18;;;8.40;99.90;;;;;;5089257;28;20044;-81
2022/12/28 11:11:28;;;;;;;8.65;5.00;;;8.40;99.90;;;;;;5106234;28;20074;-81
2022/12/28 11:14:02;;;;;;;6.55;4.38;;;8.40;99.90;;;;;;5089461;28;20047;-80
2022/12/28 11:16:34;;;;;;;6.53;4.18;;;8.50;99.90;;;;;;5105082;28;20122;-81
2022/12/28 11:19:01;;;;;;;8.00;4.38;;;8.40;99.90;;;;;;5126462;28;20035;-81
2022/12/28 11:21:28;;;;;;;9.80;4.22;;;8.50;99.90;;;;;;5100667;28;20044;-80
2022/12/28 11:23:54;;;;;;;7.47;4.32;;;8.50;99.90;;;;;;5104320;28;20058;-80
2022/12/28 11:26:21;;;;;;;7.28;4.38;;;8.50;99.90;;;;;;5107691;28;20586;-80
2022/12/28 11:28:50;;;;;;;6.38;3.90;;;8.50;99.90;;;;;;5109858;28;20119;-80
2022/12/28 11:31:36;;;;;;;5.50;3.75;;;8.50;99.90;;;;;;5125481;28;20067;-80
2022/12/28 11:34:05;;;;;;;8.25;4.82;;;8.50;99.90;;;;;;5111964;28;20036;-80
2022/12/28 11:36:38;;;;;;;6.28;3.60;;;8.50;99.90;;;;;;5114330;28;20032;-80
2022/12/28 11:39:30;;;;;;;6.93;4.10;;;8.50;99.90;;;;;;5108866;28;20066;-80
2022/12/28 11:41:59;;;;;;;5.82;3.60;;;8.50;99.90;;;;;;5142150;28;20050;-80
2022/12/28 11:44:28;;;;;;;8.20;3.88;;;9.10;99.90;;;;;;5098248;28;20067;-80
2022/12/28 11:47:18;;;;;;;5.53;3.25;;;8.50;99.90;;;;;;5112203;28;20047;-80
2022/12/28 11:49:47;;;;;;;4.68;3.05;;;8.50;99.90;;;;;;5101732;28;20073;-80
2022/12/28 11:52:14;;;;;;;5.22;3.53;;;8.50;99.90;;;;;;5128601;28;20043;-81
2022/12/28 11:54:53;;;;;;;4.60;2.72;;;8.50;99.90;;;;;;5114049;28;20051;-80
2022/12/28 11:57:40;;;;;;;5.60;3.10;;;8.50;99.90;;;;;;5122642;28;20050;-81
2022/12/28 12:00:17;;;;;;;4.72;2.67;;;8.50;99.90;;;;;;5123065;28;20044;-80
2022/12/28 12:02:52;;;;;;;6.93;3.28;;;8.50;99.90;;;;;;5107841;28;20036;-80
2022/12/28 12:05:37;;;;;;;5.13;2.92;;;8.60;99.90;;;;;;5125338;28;20406;-80
2022/12/28 12:08:16;;;;;;;4.60;3.00;;;8.50;99.90;;;;;;5133879;28;20492;-81
2022/12/28 12:10:44;;;;;;;17.90;11.50;;;8.50;99.90;;;;;;5112050;28;20278;-81
2022/12/28 12:13:26;;;;;;;11.45;6.10;;;8.60;99.90;;;;;;5125693;28;20032;-80
2022/12/28 12:15:58;;;;;;;11.23;5.90;;;8.60;99.90;;;;;;5122976;28;20044;-81
2022/12/28 12:18:28;;;;;;;10.20;5.82;;;8.60;99.90;;;;;;5112779;28;20093;-81
2022/12/28 12:21:06;;;;;;;9.02;5.80;;;8.50;99.90;;;;;;5111660;28;20043;-80
2022/12/28 12:23:44;;;;;;;13.18;7.30;;;8.50;99.90;;;;;;5123919;28;20048;-80
2022/12/28 12:26:36;;;;;;;12.77;7.20;;;8.60;99.90;;;;;;5108342;28;20075;-80
2022/12/28 12:29:13;;;;;;;5.25;3.10;;;8.50;99.90;;;;;;5119321;28;20040;-80
2022/12/28 12:31:48;;;;;;;5.40;3.15;;;8.50;99.90;;;;;;5125924;28;20076;-80
2022/12/28 12:34:27;;;;;;;6.03;3.50;;;8.60;99.90;;;;;;5108290;28;20062;-81
2022/12/28 12:36:54;;;;;;;5.20;3.03;;;8.50;99.90;;;;;;5098262;28;20627;-81
2022/12/28 12:39:26;;;;;;;4.47;2.80;;;8.50;99.90;;;;;;5122516;28;20115;-80
2022/12/28 12:42:09;;;;;;;6.00;3.47;;;8.50;99.90;;;;;;5121058;28;20043;-81
2022/12/28 12:44:58;;;;;;;6.30;3.17;;;8.50;99.90;;;;;;5107490;28;20532;-80
2022/12/28 12:47:35;;;;;;;6.40;3.80;;;8.50;99.90;;;;;;5108392;28;20101;-81
2022/12/28 12:50:27;;;;;;;8.65;4.15;;;8.50;99.90;;;;;;5107598;28;20071;-80
2022/12/28 12:53:18;;;;;;;4.95;2.60;;;8.50;99.90;;;;;;5107120;28;20794;-81
2022/12/28 12:56:12;;;;;;;7.72;3.53;;;8.50;99.90;;;;;;5107662;28;20385;-81
2022/12/28 12:59:01;;;;;;;12.30;6.13;;;8.50;99.90;;;;;;5087544;28;20052;-80
2022/12/28 13:02:11;;;;;;;7.70;3.83;;;8.50;99.90;;;;;;5122257;28;20055;-81
2022/12/28 13:04:44;;;;;;;5.35;2.40;;;8.60;99.90;;;;;;5145479;28;20628;-81
2022/12/28 13:07:19;;;;;;;7.60;4.28;;;8.50;99.90;;;;;;5120850;28;20039;-81
2022/12/28 13:09:46;;;;;;;4.70;2.83;;;8.50;99.90;;;;;;5125454;28;20044;-80
2022/12/28 13:12:16;;;;;;;4.05;2.13;;;8.50;99.90;;;;;;5078092;28;20045;-80
2022/12/28 13:14:45;;;;;;;4.63;2.90;;;8.50;99.90;;;;;;5131306;28;20039;-81
2022/12/28 13:17:18;;;;;;;5.03;2.50;;;8.50;99.90;;;;;;5104863;28;20036;-80
2022/12/28 13:19:45;;;;;;;5.25;2.75;;;8.60;99.90;;;;;;5146664;28;20561;-80
2022/12/28 13:22:25;;;;;;;4.38;2.42;;;8.50;99.90;;;;;;5131247;28;20078;-80
2022/12/28 13:24:52;;;;;;;4.70;2.58;;;8.50;99.90;;;;;;5124280;28;20409;-81
2022/12/28 13:27:20;;;;;;;4.90;2.55;;;8.50;99.90;;;;;;5100420;28;20179;-79
2022/12/28 13:29:53;;;;;;;5.13;2.40;;;8.50;99.90;;;;;;5128599;28;20549;-81
2022/12/28 13:32:27;;;;;;;4.47;2.47;;;8.50;99.90;;;;;;5097518;28;20043;-80
2022/12/28 13:34:54;;;;;;;3.60;2.10;;;8.50;99.90;;;;;;5111907;28;20150;-80
2022/12/28 13:37:21;;;;;;;6.47;1.98;;;8.50;99.90;;;;;;5111919;28;20122;-81
2022/12/28 13:39:48;;;;;;;3.30;1.80;;;8.40;99.90;;;;;;5111183;28;20036;-80
2022/12/28 13:42:25;;;;;;;3.22;1.90;;;8.40;99.90;;;;;;5104327;28;20067;-81
2022/12/28 13:45:00;;;;;;;3.88;1.90;;;8.50;99.90;;;;;;5134147;28;20044;-80